Time;durP1;ratioP1;P1;durP2;ratioP2;P2;SDS_P1;SDS_P2;PMS_P1;PMS_P2;Temp;Humidity;BMP_temperature;BMP_pressure;BME280_temperature;BME280_humidity;BME280_pressure;Samples;Min_cycle;Max_cycle;Signal;HPM_P1;HPM_P2
2022/06/18 00:02:15;;;;;;;0.70;0.70;;;21.10;99.90;;;;;;5049675;28;20204;-63
2022/06/18 00:04:44;;;;;;;0.50;0.50;;;21.10;99.90;;;;;;5050231;28;20216;-63
2022/06/18 00:07:14;;;;;;;0.60;0.60;;;21.10;99.90;;;;;;5058517;28;20321;-63
2022/06/18 00:09:44;;;;;;;0.50;0.50;;;21.00;99.90;;;;;;5068981;28;20214;-63
2022/06/18 00:15:01;;;;;;;0.70;0.70;;;20.90;99.90;;;;;;5069912;28;20206;-63
2022/06/18 00:17:29;;;;;;;0.50;0.50;;;20.80;99.90;;;;;;5066886;28;20309;-62
2022/06/18 00:19:57;;;;;;;0.65;0.65;;;20.70;99.90;;;;;;5057988;28;20218;-62
2022/06/18 00:22:24;;;;;;;0.70;0.70;;;20.60;99.90;;;;;;5057468;28;20662;-63
2022/06/18 00:24:52;;;;;;;0.70;0.70;;;20.50;99.90;;;;;;5061961;28;20310;-64
2022/06/18 00:27:19;;;;;;;0.75;0.75;;;20.50;99.90;;;;;;5068275;28;20223;-64
2022/06/18 00:29:47;;;;;;;0.90;0.90;;;20.40;99.90;;;;;;5070829;28;20273;-63
2022/06/18 00:32:16;;;;;;;0.60;0.60;;;20.40;99.90;;;;;;5070319;28;20767;-62
2022/06/18 00:34:44;;;;;;;0.75;0.75;;;20.40;99.90;;;;;;5075469;28;20242;-63
2022/06/18 00:37:17;;;;;;;0.60;0.60;;;20.30;99.90;;;;;;5071135;28;20302;-64
2022/06/18 00:39:44;;;;;;;0.50;0.50;;;20.40;99.90;;;;;;5070071;28;20210;-63
2022/06/18 00:42:23;;;;;;;0.50;0.50;;;20.40;99.90;;;;;;5063346;28;20649;-63
2022/06/18 00:44:54;;;;;;;0.70;0.70;;;20.40;99.90;;;;;;5072333;28;20220;-63
2022/06/18 00:47:28;;;;;;;0.57;0.57;;;20.40;99.90;;;;;;5076151;28;20223;-64
2022/06/18 00:50:02;;;;;;;0.60;0.60;;;20.30;99.90;;;;;;5082390;28;20239;-64
2022/06/18 00:52:36;;;;;;;0.50;0.50;;;20.20;99.90;;;;;;5081657;28;20213;-62
2022/06/18 00:55:07;;;;;;;0.60;0.60;;;20.20;99.90;;;;;;5078030;28;20230;-63
2022/06/18 00:57:41;;;;;;;0.63;0.63;;;20.20;99.90;;;;;;5070023;28;20258;-64
2022/06/18 01:00:12;;;;;;;0.70;0.70;;;20.30;99.90;;;;;;5082557;28;20302;-63
2022/06/18 01:02:43;;;;;;;0.95;0.60;;;20.20;99.90;;;;;;5082559;28;20215;-62
2022/06/18 01:05:21;;;;;;;0.50;0.50;;;20.30;99.90;;;;;;5075266;28;20572;-62
2022/06/18 01:07:53;;;;;;;0.77;0.77;;;20.30;99.90;;;;;;5074386;28;20235;-68
2022/06/18 01:10:26;;;;;;;1.00;1.00;;;20.30;99.90;;;;;;5073941;28;20229;-63
2022/06/18 01:12:54;;;;;;;0.65;0.65;;;20.20;99.90;;;;;;5074270;28;20242;-64
2022/06/18 01:15:21;;;;;;;0.60;0.60;;;20.10;99.90;;;;;;5070106;28;20204;-64
2022/06/18 01:17:51;;;;;;;0.70;0.70;;;20.10;99.90;;;;;;5068220;28;20347;-63
2022/06/18 01:20:21;;;;;;;0.50;0.50;;;20.10;99.90;;;;;;5073549;28;20254;-63
2022/06/18 01:22:55;;;;;;;0.70;0.70;;;20.10;99.90;;;;;;5072121;28;20261;-64
2022/06/18 01:25:25;;;;;;;0.60;0.60;;;20.10;99.90;;;;;;5071482;28;20221;-63
2022/06/18 01:27:53;;;;;;;0.60;0.60;;;20.10;99.90;;;;;;5067072;28;20364;-63
2022/06/18 01:30:22;;;;;;;0.77;0.77;;;20.00;99.90;;;;;;5072101;28;20294;-63
2022/06/18 01:32:52;;;;;;;0.60;0.60;;;20.00;99.90;;;;;;5071728;28;20199;-64
2022/06/18 01:35:20;;;;;;;0.70;0.70;;;20.00;99.90;;;;;;5071621;28;20202;-63
2022/06/18 01:37:48;;;;;;;0.60;0.60;;;20.00;99.90;;;;;;5071271;28;20310;-62
2022/06/18 01:40:20;;;;;;;0.82;0.82;;;19.90;99.90;;;;;;5071403;28;20211;-63
2022/06/18 01:42:50;;;;;;;0.70;0.70;;;20.00;99.90;;;;;;5066365;28;20302;-63
2022/06/18 01:45:21;;;;;;;0.80;0.80;;;20.00;99.90;;;;;;5069198;28;20227;-64
2022/06/18 01:47:53;;;;;;;0.70;0.70;;;20.00;99.90;;;;;;5071805;28;20235;-64
2022/06/18 01:50:24;;;;;;;0.57;0.57;;;19.90;99.90;;;;;;5070949;28;20238;-61
2022/06/18 01:52:56;;;;;;;0.70;0.70;;;19.90;99.90;;;;;;5068702;28;20249;-64
2022/06/18 01:55:29;;;;;;;0.75;0.75;;;19.90;99.90;;;;;;5073776;28;20234;-63
2022/06/18 01:58:05;;;;;;;0.80;0.80;;;19.90;99.90;;;;;;5078119;28;20287;-64
2022/06/18 02:00:33;;;;;;;0.70;0.70;;;19.80;99.90;;;;;;5067570;28;20240;-64
2022/06/18 02:03:01;;;;;;;0.70;0.70;;;19.80;99.90;;;;;;5074631;28;20785;-62
2022/06/18 02:05:28;;;;;;;0.65;0.65;;;19.70;99.90;;;;;;5073990;28;20222;-63
2022/06/18 02:07:55;;;;;;;0.73;0.73;;;19.70;99.90;;;;;;5073867;28;20338;-62
2022/06/18 02:10:27;;;;;;;0.60;0.60;;;19.60;99.90;;;;;;5075396;28;20215;-63
2022/06/18 02:12:56;;;;;;;0.80;0.80;;;19.60;99.90;;;;;;5078584;28;20213;-62
2022/06/18 02:15:29;;;;;;;0.50;0.50;;;19.50;99.90;;;;;;5077680;28;20309;-62
2022/06/18 02:18:01;;;;;;;0.73;0.73;;;19.40;99.90;;;;;;5074296;28;20222;-62
2022/06/18 02:20:30;;;;;;;0.68;0.68;;;19.40;99.90;;;;;;5075860;28;20211;-62
2022/06/18 02:22:58;;;;;;;0.70;0.70;;;19.40;99.90;;;;;;5076016;28;20225;-63
2022/06/18 02:25:27;;;;;;;0.70;0.70;;;19.40;99.90;;;;;;5073610;28;20315;-62
2022/06/18 02:27:57;;;;;;;0.70;0.70;;;19.30;99.90;;;;;;5073806;28;20262;-63
2022/06/18 02:30:28;;;;;;;0.65;0.65;;;19.30;99.90;;;;;;5070774;28;20226;-64
2022/06/18 02:32:59;;;;;;;0.70;0.70;;;19.30;99.90;;;;;;5069070;28;20302;-63
2022/06/18 02:35:28;;;;;;;0.63;0.63;;;19.30;99.90;;;;;;5078637;28;20199;-64
2022/06/18 02:37:55;;;;;;;0.70;0.70;;;19.30;99.90;;;;;;5079627;28;20314;-63
2022/06/18 02:40:26;;;;;;;0.40;0.40;;;19.30;99.90;;;;;;5074456;28;20214;-63
2022/06/18 02:42:55;;;;;;;0.60;0.60;;;19.30;99.90;;;;;;5074445;28;20199;-63
2022/06/18 02:45:24;;;;;;;0.70;0.70;;;19.40;99.90;;;;;;5072694;28;20753;-61
2022/06/18 02:47:56;;;;;;;0.70;0.70;;;19.40;99.90;;;;;;5073748;28;20223;-63
2022/06/18 02:50:28;;;;;;;0.75;0.75;;;19.40;99.90;;;;;;5073753;28;20207;-63
2022/06/18 02:53:00;;;;;;;0.80;0.80;;;19.30;99.90;;;;;;5073919;28;20297;-62
2022/06/18 02:55:30;;;;;;;0.73;0.73;;;19.40;99.90;;;;;;5072597;28;20206;-62
2022/06/18 02:58:03;;;;;;;0.90;0.90;;;19.40;99.90;;;;;;5073195;28;20219;-62
2022/06/18 03:00:31;;;;;;;0.80;0.80;;;19.30;99.90;;;;;;5078758;28;20275;-63
2022/06/18 03:02:59;;;;;;;0.60;0.60;;;19.30;99.90;;;;;;5073627;28;20235;-62
2022/06/18 03:05:28;;;;;;;0.68;0.68;;;19.20;99.90;;;;;;5073156;28;20851;-63
2022/06/18 03:07:55;;;;;;;0.80;0.80;;;19.10;99.90;;;;;;5067350;28;20266;-63
2022/06/18 03:13:07;;;;;;;0.70;0.70;;;18.90;99.90;;;;;;5069717;28;20578;-62
2022/06/18 03:15:34;;;;;;;0.80;0.80;;;18.90;99.90;;;;;;5065494;28;20557;-62
2022/06/18 03:18:03;;;;;;;0.70;0.70;;;18.90;99.90;;;;;;5072723;28;20241;-62
2022/06/18 03:20:40;;;;;;;0.70;0.70;;;18.90;99.90;;;;;;5073533;28;20309;-62
2022/06/18 03:23:07;;;;;;;0.52;0.52;;;18.90;99.90;;;;;;5072981;28;20203;-61
2022/06/18 03:25:34;;;;;;;1.27;0.70;;;18.90;99.90;;;;;;5065135;28;20250;-64
2022/06/18 03:28:01;;;;;;;0.80;0.80;;;18.90;99.90;;;;;;5072905;28;20219;-63
2022/06/18 03:30:28;;;;;;;0.80;0.80;;;18.90;99.90;;;;;;5072781;28;20297;-62
2022/06/18 03:32:55;;;;;;;0.82;0.70;;;18.90;99.90;;;;;;5072467;28;20233;-64
2022/06/18 03:35:23;;;;;;;0.60;0.60;;;18.90;99.90;;;;;;5071805;28;20279;-63
2022/06/18 03:37:50;;;;;;;0.70;0.70;;;18.80;99.90;;;;;;5072510;28;20251;-63
2022/06/18 03:40:17;;;;;;;0.70;0.70;;;18.80;99.90;;;;;;5072243;28;20227;-62
2022/06/18 03:42:44;;;;;;;0.90;0.90;;;18.80;99.90;;;;;;5072708;28;20203;-62
2022/06/18 03:45:11;;;;;;;0.80;0.80;;;18.90;99.90;;;;;;5071479;28;20199;-63
2022/06/18 03:47:38;;;;;;;0.80;0.80;;;18.80;99.90;;;;;;5072166;28;20680;-63
2022/06/18 03:50:06;;;;;;;0.70;0.70;;;18.90;99.90;;;;;;5072118;28;20657;-62
2022/06/18 03:52:35;;;;;;;0.70;0.70;;;18.90;99.90;;;;;;5064048;28;20202;-61
2022/06/18 03:55:01;;;;;;;1.05;0.95;;;18.90;99.90;;;;;;5072399;28;20207;-63
2022/06/18 03:57:29;;;;;;;0.68;0.68;;;19.00;99.90;;;;;;5071178;28;20269;-63
2022/06/18 03:59:55;;;;;;;0.90;0.90;;;19.00;99.90;;;;;;5072071;28;20289;-61
2022/06/18 04:02:22;;;;;;;0.82;0.70;;;19.10;99.90;;;;;;5071555;28;20293;-62
2022/06/18 04:04:49;;;;;;;0.88;0.88;;;19.10;99.90;;;;;;5071919;28;20289;-63
2022/06/18 04:07:20;;;;;;;0.65;0.65;;;19.20;99.90;;;;;;5071212;28;20229;-61
2022/06/18 04:09:50;;;;;;;0.70;0.70;;;19.20;99.90;;;;;;5071877;28;20302;-63
2022/06/18 04:12:17;;;;;;;0.90;0.90;;;19.20;99.90;;;;;;5071707;28;20199;-61
2022/06/18 04:14:44;;;;;;;0.70;0.70;;;19.20;99.90;;;;;;5071856;28;20712;-62
2022/06/18 04:17:13;;;;;;;0.80;0.80;;;19.20;99.90;;;;;;5071101;28;20219;-61
2022/06/18 04:19:40;;;;;;;0.63;0.63;;;19.30;99.90;;;;;;5075099;28;20207;-63
2022/06/18 04:22:07;;;;;;;1.20;1.00;;;19.40;99.90;;;;;;5071953;28;20913;-63
2022/06/18 04:24:34;;;;;;;0.90;0.90;;;19.50;99.90;;;;;;5068625;28;20289;-64
2022/06/18 04:27:02;;;;;;;0.88;0.88;;;19.50;99.90;;;;;;5070873;28;20227;-63
2022/06/18 04:29:29;;;;;;;0.77;0.77;;;19.50;99.90;;;;;;5071177;28;20624;-64
2022/06/18 04:31:56;;;;;;;0.82;0.82;;;19.50;99.90;;;;;;5071763;28;20203;-62
2022/06/18 04:34:23;;;;;;;1.05;0.73;;;19.50;99.90;;;;;;5071595;28;20209;-64
2022/06/18 04:36:50;;;;;;;0.90;0.90;;;19.60;99.90;;;;;;5064974;28;20314;-63
2022/06/18 04:39:17;;;;;;;0.80;0.80;;;19.60;99.90;;;;;;5078552;28;20204;-63
2022/06/18 04:41:44;;;;;;;0.90;0.90;;;19.70;99.90;;;;;;5074650;28;20642;-62
2022/06/18 04:44:13;;;;;;;0.70;0.70;;;19.80;99.90;;;;;;5079556;28;20235;-63
2022/06/18 04:46:40;;;;;;;0.85;0.85;;;19.90;99.90;;;;;;5079568;28;20306;-64
2022/06/18 04:49:07;;;;;;;0.80;0.80;;;20.00;99.90;;;;;;5081037;28;20267;-62
2022/06/18 04:51:34;;;;;;;0.77;0.77;;;20.00;99.90;;;;;;5071774;28;20199;-63
2022/06/18 04:54:00;;;;;;;1.00;1.00;;;20.10;99.90;;;;;;5073206;28;20290;-62
2022/06/18 04:56:27;;;;;;;1.27;0.80;;;20.10;99.90;;;;;;5073106;28;20257;-63
2022/06/18 04:58:54;;;;;;;0.70;0.70;;;20.20;99.90;;;;;;5073126;28;20297;-63
2022/06/18 05:01:29;;;;;;;0.77;0.77;;;20.20;99.90;;;;;;5073494;28;20286;-62
2022/06/18 05:03:56;;;;;;;0.82;0.82;;;20.30;99.90;;;;;;5073408;28;20199;-62
2022/06/18 05:09:01;;;;;;;0.75;0.75;;;20.40;99.90;;;;;;5029207;28;20582;-68
2022/06/18 05:11:28;;;;;;;0.80;0.80;;;20.40;99.90;;;;;;5032594;28;20212;-68
2022/06/18 05:13:55;;;;;;;0.80;0.80;;;20.60;99.90;;;;;;5032857;28;20235;-69
2022/06/18 05:16:24;;;;;;;1.95;0.80;;;20.70;99.90;;;;;;5031693;28;20239;-67
2022/06/18 05:18:51;;;;;;;0.68;0.68;;;20.80;99.90;;;;;;5022884;28;20209;-67
2022/06/18 05:21:18;;;;;;;0.80;0.80;;;20.90;99.90;;;;;;5011767;28;20209;-69
2022/06/18 05:23:45;;;;;;;0.77;0.77;;;21.00;99.90;;;;;;5021040;28;20224;-70
2022/06/18 05:26:15;;;;;;;0.82;0.82;;;21.20;99.90;;;;;;5033767;28;20233;-68
2022/06/18 05:28:43;;;;;;;0.88;0.85;;;21.30;99.90;;;;;;5025332;28;20225;-67
2022/06/18 05:31:10;;;;;;;0.85;0.85;;;21.40;99.90;;;;;;5023901;28;20567;-69
2022/06/18 05:33:38;;;;;;;0.77;0.77;;;21.50;99.90;;;;;;5026839;28;20213;-69
2022/06/18 05:36:09;;;;;;;1.88;0.93;;;21.70;99.90;;;;;;5022712;28;20205;-70
2022/06/18 05:38:36;;;;;;;0.70;0.70;;;21.80;99.90;;;;;;5021922;28;20704;-68
2022/06/18 05:41:03;;;;;;;0.80;0.80;;;21.90;99.90;;;;;;5042656;28;20212;-68
2022/06/18 05:43:30;;;;;;;0.70;0.70;;;22.00;99.90;;;;;;5035272;28;20201;-68
2022/06/18 05:45:57;;;;;;;0.70;0.70;;;22.20;99.90;;;;;;5025049;28;20252;-67
2022/06/18 05:48:24;;;;;;;0.80;0.80;;;22.40;99.90;;;;;;5023180;28;20229;-67
2022/06/18 05:50:53;;;;;;;0.80;0.80;;;22.60;99.90;;;;;;5025097;28;20244;-67
2022/06/18 05:53:20;;;;;;;0.85;0.85;;;22.70;99.90;;;;;;5022532;28;20897;-67
2022/06/18 05:55:48;;;;;;;0.90;0.90;;;22.80;99.90;;;;;;5023737;28;20622;-67
2022/06/18 05:58:16;;;;;;;0.70;0.70;;;23.00;99.90;;;;;;5023577;28;20229;-66
2022/06/18 06:00:43;;;;;;;0.90;0.90;;;23.10;99.90;;;;;;5022113;28;20200;-66
2022/06/18 06:03:10;;;;;;;0.80;0.80;;;23.30;99.90;;;;;;5022684;28;20205;-66
2022/06/18 06:05:36;;;;;;;0.82;0.82;;;23.40;99.90;;;;;;5021798;28;20252;-69
2022/06/18 06:08:05;;;;;;;1.00;0.63;;;23.40;99.90;;;;;;5037556;28;20224;-67
2022/06/18 06:13:19;;;;;;;0.93;0.90;;;23.70;99.90;;;;;;5017377;28;20203;-66
2022/06/18 06:15:46;;;;;;;1.17;0.88;;;23.80;99.90;;;;;;5020909;28;20730;-67
2022/06/18 06:18:15;;;;;;;0.70;0.70;;;23.90;99.90;;;;;;5028273;28;20224;-65
2022/06/18 06:20:44;;;;;;;0.80;0.80;;;24.00;99.90;;;;;;5020214;28;20288;-67
2022/06/18 06:23:13;;;;;;;0.88;0.85;;;24.20;99.90;;;;;;5027893;28;20200;-65
2022/06/18 06:25:42;;;;;;;0.90;0.90;;;24.20;99.90;;;;;;5033630;28;20209;-67
2022/06/18 06:28:14;;;;;;;0.85;0.85;;;24.30;99.90;;;;;;5029745;28;20687;-68
2022/06/18 06:30:41;;;;;;;0.80;0.80;;;24.50;99.90;;;;;;5025581;28;20209;-68
2022/06/18 06:33:09;;;;;;;0.90;0.90;;;24.60;99.90;;;;;;5021952;28;20575;-67
2022/06/18 06:35:36;;;;;;;0.75;0.75;;;24.70;99.90;;;;;;5016165;28;20198;-67
2022/06/18 06:38:04;;;;;;;0.80;0.80;;;24.80;99.90;;;;;;5027916;28;20645;-69
2022/06/18 06:40:34;;;;;;;0.63;0.63;;;24.90;99.90;;;;;;5023847;28;20573;-67
2022/06/18 06:43:01;;;;;;;0.80;0.80;;;25.00;99.90;;;;;;5023457;28;20213;-67
2022/06/18 06:45:31;;;;;;;0.80;0.80;;;25.20;99.90;;;;;;5022009;28;20236;-68
2022/06/18 06:47:59;;;;;;;0.82;0.82;;;25.30;99.90;;;;;;5023674;28;20249;-70
2022/06/18 06:50:28;;;;;;;1.10;1.00;;;25.50;99.90;;;;;;5020443;28;20476;-69
2022/06/18 06:52:56;;;;;;;0.80;0.80;;;25.70;99.90;;;;;;5022540;28;20233;-67
2022/06/18 06:58:11;;;;;;;1.15;0.90;;;25.90;99.90;;;;;;5020522;28;20734;-69
2022/06/18 07:00:40;;;;;;;1.00;1.00;;;26.00;99.90;;;;;;5018743;28;20259;-68
2022/06/18 07:03:07;;;;;;;0.60;0.60;;;26.00;99.90;;;;;;5024428;28;20259;-68
2022/06/18 07:05:34;;;;;;;0.90;0.90;;;26.10;99.90;;;;;;5027918;28;20255;-69
2022/06/18 07:08:01;;;;;;;1.00;1.00;;;26.30;99.90;;;;;;5017660;28;20256;-68
2022/06/18 07:10:28;;;;;;;0.70;0.70;;;26.40;99.90;;;;;;5015567;28;20284;-68
2022/06/18 07:12:55;;;;;;;0.90;0.90;;;26.40;99.90;;;;;;5015865;28;20239;-68
2022/06/18 07:15:23;;;;;;;0.90;0.90;;;26.60;99.90;;;;;;5015121;28;20639;-69
2022/06/18 07:17:50;;;;;;;0.90;0.90;;;26.70;99.90;;;;;;5015673;28;20245;-68
2022/06/18 07:20:19;;;;;;;0.80;0.80;;;26.80;99.90;;;;;;5015131;28;20236;-67
2022/06/18 07:22:46;;;;;;;0.90;0.90;;;26.90;99.90;;;;;;5015089;28;20296;-73
2022/06/18 07:25:15;;;;;;;0.80;0.80;;;27.00;99.90;;;;;;5013937;28;20285;-67
2022/06/18 07:27:43;;;;;;;0.85;0.85;;;27.10;99.90;;;;;;5022038;28;20264;-68
2022/06/18 07:30:11;;;;;;;0.80;0.80;;;27.10;99.90;;;;;;5019023;28;20235;-68
2022/06/18 07:32:45;;;;;;;1.00;1.00;;;27.10;99.90;;;;;;5013250;28;20206;-69
2022/06/18 07:35:19;;;;;;;0.80;0.80;;;27.20;99.90;;;;;;5014947;28;20667;-68
2022/06/18 07:37:46;;;;;;;0.80;0.80;;;27.30;99.90;;;;;;5015421;28;20225;-69
2022/06/18 07:40:13;;;;;;;0.80;0.80;;;27.30;99.90;;;;;;5015261;28;20288;-69
2022/06/18 07:42:42;;;;;;;0.80;0.80;;;27.50;99.90;;;;;;5014431;28;20298;-70
2022/06/18 07:45:15;;;;;;;0.90;0.90;;;27.60;99.90;;;;;;5014572;28;20284;-69
2022/06/18 07:47:45;;;;;;;0.80;0.80;;;27.60;99.90;;;;;;5020947;28;20257;-68
2022/06/18 07:50:12;;;;;;;1.67;1.15;;;27.70;99.90;;;;;;5015249;28;20259;-68
2022/06/18 07:52:39;;;;;;;1.00;1.00;;;27.80;99.90;;;;;;5020175;28;20702;-69
2022/06/18 07:55:11;;;;;;;0.95;0.85;;;27.80;99.90;;;;;;5012633;28;20296;-71
2022/06/18 07:57:38;;;;;;;1.10;1.10;;;27.90;99.90;;;;;;5018112;28;20659;-69
2022/06/18 08:00:07;;;;;;;1.60;1.20;;;27.90;99.90;;;;;;5015735;28;20233;-68
2022/06/18 08:02:37;;;;;;;1.40;1.00;;;27.90;99.90;;;;;;5016162;28;20279;-69
2022/06/18 08:05:06;;;;;;;0.77;0.77;;;27.80;99.90;;;;;;5025998;28;20232;-68
2022/06/18 08:07:33;;;;;;;0.80;0.80;;;27.80;99.90;;;;;;5017525;28;20253;-69
2022/06/18 08:10:00;;;;;;;0.95;0.95;;;28.00;99.90;;;;;;5019343;28;20228;-70
2022/06/18 08:12:27;;;;;;;1.10;1.10;;;28.00;99.90;;;;;;5026177;28;20292;-68
2022/06/18 08:14:58;;;;;;;1.00;1.00;;;28.10;99.90;;;;;;5023558;28;20307;-70
2022/06/18 08:17:25;;;;;;;0.80;0.80;;;28.10;99.90;;;;;;5027772;28;20580;-70
2022/06/18 08:19:52;;;;;;;0.85;0.85;;;28.10;99.90;;;;;;5014988;28;20211;-70
2022/06/18 08:22:22;;;;;;;0.90;0.90;;;28.20;99.90;;;;;;5015920;28;20686;-69
2022/06/18 08:24:49;;;;;;;0.85;0.85;;;28.20;99.90;;;;;;5013736;28;20656;-69
2022/06/18 08:27:16;;;;;;;1.00;1.00;;;28.30;99.90;;;;;;5014528;28;20319;-69
2022/06/18 08:29:44;;;;;;;1.40;0.93;;;28.30;99.90;;;;;;5027325;28;20205;-68
2022/06/18 08:32:11;;;;;;;1.13;1.02;;;28.40;99.90;;;;;;5025607;28;20288;-67
2022/06/18 08:34:37;;;;;;;0.80;0.80;;;28.30;99.90;;;;;;5025037;28;20209;-69
2022/06/18 08:37:07;;;;;;;1.08;1.00;;;28.50;99.90;;;;;;5016300;28;20224;-68
2022/06/18 08:39:38;;;;;;;1.00;1.00;;;28.60;99.90;;;;;;5016022;28;20297;-70
2022/06/18 08:42:19;;;;;;;2.78;0.85;;;28.70;99.90;;;;;;5023596;28;20292;-69
2022/06/18 08:45:05;;;;;;;0.82;0.82;;;28.80;99.90;;;;;;5019804;28;20215;-70
2022/06/18 08:47:54;;;;;;;1.00;1.00;;;29.00;99.90;;;;;;5023917;28;20599;-70
2022/06/18 08:50:35;;;;;;;0.85;0.85;;;29.10;99.90;;;;;;5019940;28;20687;-71
2022/06/18 08:53:20;;;;;;;0.70;0.70;;;29.10;99.90;;;;;;5020354;28;20670;-70
2022/06/18 08:55:56;;;;;;;1.00;1.00;;;29.10;99.90;;;;;;5018233;28;20300;-70
2022/06/18 08:58:30;;;;;;;1.20;1.10;;;29.10;99.90;;;;;;5012937;28;20312;-69
2022/06/18 09:01:02;;;;;;;0.90;0.90;;;29.20;99.90;;;;;;5007898;28;20209;-70
2022/06/18 09:03:41;;;;;;;0.98;0.90;;;29.40;99.90;;;;;;5011698;28;20687;-70
2022/06/18 09:06:25;;;;;;;0.88;0.88;;;29.60;99.90;;;;;;5018019;28;20201;-68
2022/06/18 09:09:02;;;;;;;1.00;1.00;;;29.70;99.90;;;;;;5017337;28;20235;-71
2022/06/18 09:11:48;;;;;;;1.00;1.00;;;29.50;99.90;;;;;;5031706;28;20197;-69
2022/06/18 09:14:23;;;;;;;0.93;0.93;;;29.60;99.90;;;;;;5022469;28;20754;-70
2022/06/18 09:16:53;;;;;;;1.02;1.02;;;29.80;99.90;;;;;;5019712;28;20306;-69
2022/06/18 09:19:23;;;;;;;0.77;0.77;;;30.10;99.90;;;;;;5016102;28;20211;-69
2022/06/18 09:21:53;;;;;;;1.23;1.00;;;30.30;99.90;;;;;;5011832;28;20209;-70
2022/06/18 09:24:24;;;;;;;0.90;0.90;;;30.50;99.90;;;;;;5012123;28;20197;-69
2022/06/18 09:26:57;;;;;;;0.90;0.90;;;30.60;99.90;;;;;;5011638;28;20231;-70
2022/06/18 09:29:30;;;;;;;0.90;0.90;;;30.70;99.90;;;;;;5012017;28;20205;-71
2022/06/18 09:32:01;;;;;;;1.00;1.00;;;30.80;99.90;;;;;;5018480;28;20209;-74
2022/06/18 09:34:34;;;;;;;0.90;0.90;;;30.80;99.90;;;;;;5017139;28;20251;-71
2022/06/18 09:37:05;;;;;;;1.00;0.98;;;30.80;99.90;;;;;;5013906;28;20221;-71
2022/06/18 09:39:38;;;;;;;0.90;0.90;;;30.90;99.90;;;;;;5015320;28;20213;-71
2022/06/18 09:42:12;;;;;;;0.93;0.93;;;30.90;99.90;;;;;;5021415;28;20207;-70
2022/06/18 09:44:48;;;;;;;1.17;1.00;;;31.00;99.90;;;;;;5023982;28;20646;-70
2022/06/18 09:47:22;;;;;;;0.90;0.90;;;30.90;99.90;;;;;;5020355;28;20226;-69
2022/06/18 09:49:49;;;;;;;0.90;0.90;;;30.80;99.90;;;;;;5022742;28;20206;-71
2022/06/18 09:52:23;;;;;;;1.00;1.00;;;30.80;99.90;;;;;;5022564;28;20311;-71
2022/06/18 09:54:55;;;;;;;0.90;0.90;;;30.80;99.90;;;;;;5024645;28;20280;-70
2022/06/18 09:57:28;;;;;;;0.80;0.80;;;31.00;99.90;;;;;;5017928;28;20231;-71
2022/06/18 10:00:02;;;;;;;0.85;0.85;;;31.20;99.90;;;;;;5011122;28;20202;-70
2022/06/18 10:02:31;;;;;;;1.10;1.00;;;31.40;99.90;;;;;;5017968;28;20232;-70
2022/06/18 10:07:51;;;;;;;0.93;0.93;;;31.40;99.90;;;;;;5025974;28;20240;-71
2022/06/18 10:10:21;;;;;;;1.02;0.93;;;31.50;99.90;;;;;;5027240;28;20266;-71
2022/06/18 10:12:54;;;;;;;0.80;0.80;;;31.50;99.90;;;;;;5016091;28;20201;-71
2022/06/18 10:15:23;;;;;;;0.90;0.90;;;31.60;99.90;;;;;;5011109;28;20734;-70
2022/06/18 10:18:15;;;;;;;1.05;1.05;;;31.70;99.90;;;;;;5022012;28;20284;-70
2022/06/18 10:20:47;;;;;;;0.90;0.90;;;31.80;99.90;;;;;;5020872;28;20299;-73
2022/06/18 10:23:41;;;;;;;1.55;0.90;;;31.90;99.90;;;;;;5028596;28;20228;-72
2022/06/18 10:26:17;;;;;;;1.75;1.05;;;32.00;99.90;;;;;;5015452;28;20307;-72
2022/06/18 10:28:56;;;;;;;0.80;0.80;;;32.00;99.90;;;;;;5021970;28;20230;-71
2022/06/18 10:31:35;;;;;;;0.90;0.90;;;32.10;99.90;;;;;;5009553;28;20206;-70
2022/06/18 10:34:12;;;;;;;1.00;1.00;;;32.30;99.90;;;;;;5021172;28;20679;-70
2022/06/18 10:36:46;;;;;;;0.90;0.90;;;32.30;99.90;;;;;;5014010;28;20262;-69
2022/06/18 10:39:20;;;;;;;1.08;0.80;;;32.40;99.90;;;;;;5007673;28;20327;-71
2022/06/18 10:42:07;;;;;;;0.80;0.80;;;32.50;99.90;;;;;;5011871;28;20239;-70
2022/06/18 10:44:47;;;;;;;2.35;1.27;;;32.50;99.50;;;;;;5026455;28;20212;-70
2022/06/18 10:47:17;;;;;;;0.90;0.90;;;32.40;99.90;;;;;;5023902;28;20307;-71
2022/06/18 10:49:45;;;;;;;0.90;0.90;;;32.50;99.70;;;;;;5024013;28;20314;-72
2022/06/18 10:52:19;;;;;;;0.80;0.80;;;32.70;99.40;;;;;;5019313;28;20219;-69
2022/06/18 10:54:46;;;;;;;0.90;0.90;;;32.70;99.00;;;;;;5029567;28;20205;-69
2022/06/18 10:57:23;;;;;;;0.98;0.90;;;32.80;99.20;;;;;;5026692;28;20226;-69
2022/06/18 10:59:51;;;;;;;0.80;0.80;;;33.00;99.70;;;;;;5026718;28;20217;-70
2022/06/18 11:02:22;;;;;;;1.00;0.90;;;33.20;98.90;;;;;;5016302;28;20208;-70
2022/06/18 11:04:55;;;;;;;0.82;0.82;;;33.10;98.90;;;;;;5026851;28;20213;-69
2022/06/18 11:07:23;;;;;;;1.00;1.00;;;32.80;99.10;;;;;;5020192;28;20290;-69
2022/06/18 11:09:57;;;;;;;0.90;0.90;;;32.80;99.20;;;;;;5014640;28;20863;-69
2022/06/18 11:12:27;;;;;;;0.80;0.80;;;32.90;99.20;;;;;;5012668;28;20219;-70
2022/06/18 11:14:56;;;;;;;0.90;0.90;;;33.20;99.40;;;;;;5047363;22;20563;-62
2022/06/18 11:17:28;;;;;;;1.00;1.00;;;33.20;98.00;;;;;;5085821;28;20199;-62
2022/06/18 11:19:55;;;;;;;1.02;0.98;;;33.00;98.60;;;;;;5081609;28;20195;-62
2022/06/18 11:22:26;;;;;;;1.10;1.10;;;33.10;98.70;;;;;;5080178;28;20287;-63
2022/06/18 11:24:56;;;;;;;1.10;1.08;;;33.30;98.90;;;;;;5085489;28;20596;-62
2022/06/18 11:27:24;;;;;;;0.80;0.80;;;33.30;97.90;;;;;;5082566;28;20729;-61
2022/06/18 11:29:54;;;;;;;1.13;0.90;;;33.30;98.30;;;;;;5085489;28;20207;-61
2022/06/18 11:32:25;;;;;;;1.10;0.80;;;33.50;97.60;;;;;;5079826;28;20232;-62
2022/06/18 11:35:01;;;;;;;1.00;1.00;;;33.60;97.60;;;;;;5086656;28;20265;-62
2022/06/18 11:37:29;;;;;;;1.00;1.00;;;33.70;97.60;;;;;;5085999;28;20288;-62
2022/06/18 11:39:58;;;;;;;0.93;0.93;;;33.60;97.70;;;;;;5082088;28;20264;-62
2022/06/18 11:42:31;;;;;;;1.00;1.00;;;33.50;97.60;;;;;;5088568;28;20225;-62
2022/06/18 11:45:08;;;;;;;0.80;0.80;;;33.60;98.00;;;;;;5088213;28;20679;-62
2022/06/18 11:47:43;;;;;;;0.80;0.80;;;33.80;98.00;;;;;;5088897;28;20195;-62
2022/06/18 11:50:17;;;;;;;1.00;0.90;;;33.90;98.00;;;;;;5082375;28;20309;-62
2022/06/18 11:52:51;;;;;;;0.70;0.70;;;34.00;98.20;;;;;;5079015;28;20566;-64
2022/06/18 11:55:24;;;;;;;0.90;0.90;;;34.20;98.30;;;;;;5091502;28;20257;-62
2022/06/18 11:58:01;;;;;;;1.52;0.90;;;34.30;97.50;;;;;;5086996;28;20277;-63
2022/06/18 12:00:34;;;;;;;1.30;1.08;;;34.30;97.40;;;;;;5087698;28;20213;-63
2022/06/18 12:03:14;;;;;;;0.90;0.90;;;34.40;97.30;;;;;;5092690;28;20317;-62
2022/06/18 12:05:44;;;;;;;0.95;0.95;;;34.10;97.00;;;;;;5086196;28;20234;-64
2022/06/18 12:08:17;;;;;;;1.10;1.10;;;34.10;96.90;;;;;;5091808;28;20279;-64
2022/06/18 12:10:48;;;;;;;1.00;1.00;;;34.10;96.40;;;;;;5091608;28;20225;-62
2022/06/18 12:13:24;;;;;;;1.00;1.00;;;34.20;96.90;;;;;;5080061;28;20234;-65
2022/06/18 12:16:03;;;;;;;0.90;0.90;;;34.40;97.10;;;;;;5076929;28;20222;-65
2022/06/18 12:18:39;;;;;;;0.90;0.90;;;34.50;97.10;;;;;;5085480;28;20286;-64
2022/06/18 12:21:22;;;;;;;0.90;0.90;;;34.60;97.10;;;;;;5079486;28;20225;-64
2022/06/18 12:23:59;;;;;;;1.17;1.02;;;34.60;96.60;;;;;;5087952;28;20624;-65
2022/06/18 12:26:33;;;;;;;0.98;0.98;;;34.60;96.70;;;;;;5107155;28;20222;-64
2022/06/18 12:29:40;;;;;;;1.13;1.02;;;34.80;97.10;;;;;;5099675;28;20301;-64
2022/06/18 12:32:17;;;;;;;1.30;1.20;;;34.90;96.60;;;;;;5026024;28;20201;-64
2022/06/18 12:34:57;;;;;;;1.20;1.10;;;34.90;96.30;;;;;;5074957;28;20259;-63
2022/06/18 12:37:32;;;;;;;1.45;1.35;;;34.90;96.00;;;;;;5081487;28;20237;-63
2022/06/18 12:40:07;;;;;;;1.20;1.05;;;34.80;95.70;;;;;;5081496;28;20673;-63
2022/06/18 12:42:40;;;;;;;1.02;1.02;;;34.60;96.20;;;;;;5092892;28;20297;-63
2022/06/18 12:45:11;;;;;;;0.88;0.88;;;34.70;96.70;;;;;;5092512;28;20326;-63
2022/06/18 12:47:43;;;;;;;1.02;1.02;;;34.80;96.70;;;;;;5083977;28;20326;-65
2022/06/18 12:50:26;;;;;;;1.23;1.02;;;35.00;96.80;;;;;;5093058;28;20222;-63
2022/06/18 12:53:02;;;;;;;1.10;1.10;;;35.10;96.60;;;;;;5088271;28;20216;-64
2022/06/18 12:55:34;;;;;;;1.25;1.15;;;35.30;96.40;;;;;;5088245;28;20225;-64
2022/06/18 12:58:15;;;;;;;1.40;1.10;;;35.10;95.90;;;;;;5082383;28;20282;-64
2022/06/18 13:00:47;;;;;;;1.00;1.00;;;35.10;96.10;;;;;;5082651;28;20205;-70
2022/06/18 13:03:42;;;;;;;1.75;1.10;;;35.30;96.30;;;;;;5079539;28;20328;-64
2022/06/18 13:06:20;;;;;;;0.90;0.90;;;35.40;96.10;;;;;;5078550;28;20557;-63
2022/06/18 13:08:59;;;;;;;1.00;1.00;;;35.40;95.60;;;;;;5081058;28;20219;-63
2022/06/18 13:11:38;;;;;;;1.10;1.00;;;35.20;95.70;;;;;;5076128;28;20199;-64
2022/06/18 13:14:17;;;;;;;0.93;0.93;;;35.10;95.70;;;;;;5078815;28;20580;-63
2022/06/18 13:16:50;;;;;;;1.05;1.00;;;35.10;95.90;;;;;;5079383;28;20265;-64
2022/06/18 13:19:22;;;;;;;1.23;1.17;;;35.20;95.70;;;;;;5079357;28;20218;-63
2022/06/18 13:21:50;;;;;;;1.30;1.20;;;35.30;95.80;;;;;;5076045;28;20210;-65
2022/06/18 13:30:01;;;;;;;0.98;0.98;;;35.20;95.10;;;;;;5082471;28;20234;-64